Time;durP1;ratioP1;P1;durP2;ratioP2;P2;SDS_P1;SDS_P2;PMS_P1;PMS_P2;Temp;Humidity;BMP_temperature;BMP_pressure;BME280_temperature;BME280_humidity;BME280_pressure;Samples;Min_cycle;Max_cycle;Signal;HPM_P1;HPM_P2
2022/02/09 00:04:25;;;;;;;;;40.67;38.33;;;;;9.49;91.91;102250.47;6189592;23;46038;-83
2022/02/09 00:09:25;;;;;;;;;34.67;33.00;;;;;9.38;92.15;102227.03;6228556;22;45419;-84
2022/02/09 00:20:16;;;;;;;;;34.00;31.00;;;;;9.26;93.08;102229.16;6192386;23;44860;-84
2022/02/09 00:23:26;;;;;;;;;35.67;34.33;;;;;9.13;93.33;102211.81;6192191;23;45309;-84
2022/02/09 00:26:23;;;;;;;;;35.67;31.33;;;;;9.23;92.85;102226.41;6193123;23;45425;-84
2022/02/09 00:36:56;;;;;;;;;39.67;35.33;;;;;9.15;93.05;102230.44;6195121;23;45502;-84
2022/02/09 00:39:28;;;;;;;;;39.00;37.67;;;;;9.13;93.71;102226.81;6188944;23;45422;-84
2022/02/09 01:57:35;;;;;;;;;35.67;33.00;;;;;8.71;91.81;102186.94;6318078;22;45917;-83
2022/02/09 02:00:01;;;;;;;;;36.67;32.33;;;;;8.73;92.25;102185.28;6318966;22;45367;-83
2022/02/09 02:02:26;;;;;;;;;38.67;32.33;;;;;8.66;92.09;102180.50;6319745;22;44870;-83
2022/02/09 02:04:52;;;;;;;;;39.00;34.33;;;;;8.61;92.25;102175.91;6291261;22;45325;-84
2022/02/09 02:07:53;;;;;;;;;33.00;30.00;;;;;8.69;92.44;102185.97;6318848;22;45911;-84
2022/02/09 02:10:12;;;;;;;;;36.67;31.67;;;;;8.63;92.43;102183.03;6293752;22;45385;-84
2022/02/09 02:15:56;;;;;;;;;37.67;34.00;;;;;8.58;92.71;102175.78;6315959;22;44819;-84
2022/02/09 02:18:16;;;;;;;;;40.33;34.33;;;;;8.58;92.24;102178.44;6314138;22;45657;-84
2022/02/09 02:20:59;;;;;;;;;36.00;30.00;;;;;8.51;92.48;102168.38;6288003;22;45528;-84
2022/02/09 02:45:10;;;;;;;;;32.33;27.00;;;;;8.29;92.33;102147.00;6250169;22;44935;-83
2022/02/09 03:13:38;;;;;;;;;40.33;37.00;;;;;8.00;93.00;102114.78;6271075;22;45435;-83
2022/02/09 03:16:12;;;;;;;;;49.67;41.67;;;;;8.00;93.58;102109.47;6284481;22;45477;-83
2022/02/09 03:21:31;;;;;;;;;41.33;37.67;;;;;7.92;93.20;102093.22;6284688;22;45296;-84
2022/02/09 03:24:05;;;;;;;;;43.33;38.33;;;;;7.95;93.72;102100.38;6256394;22;45590;-84
2022/02/09 03:57:44;;;;;;;;;43.33;34.67;;;;;7.72;92.64;102070.19;6309296;22;45299;-83
2022/02/09 04:00:14;;;;;;;;;33.67;31.33;;;;;7.73;92.40;102075.53;6287278;22;45366;-83
2022/02/09 04:02:43;;;;;;;;;36.67;34.67;;;;;7.76;92.74;102070.41;6287464;22;45725;-83
2022/02/09 04:05:09;;;;;;;;;34.33;32.33;;;;;7.73;92.53;102066.69;6289250;22;45345;-83
2022/02/09 04:07:34;;;;;;;;;27.00;25.67;;;;;7.71;92.75;102063.97;6315524;22;44854;-84
2022/02/09 04:10:01;;;;;;;;;31.33;28.67;;;;;7.70;92.53;102062.16;6286988;22;45650;-84
2022/02/09 04:12:37;;;;;;;;;33.00;32.00;;;;;7.70;92.56;102062.16;6287101;22;45453;-83
2022/02/09 04:17:42;;;;;;;;;39.00;30.67;;;;;7.59;92.65;102045.78;6316023;22;45554;-83
2022/02/09 04:38:38;;;;;;;;;31.67;29.33;;;;;7.58;92.37;102061.59;6318496;22;45643;-83
2022/02/09 04:54:54;;;;;;;;;38.00;32.00;;;;;7.55;92.27;102053.50;6314759;22;45362;-84
2022/02/09 05:02:58;;;;;;;;;30.00;27.00;;;;;7.63;91.64;102062.69;6315301;22;45400;-83
2022/02/09 05:17:43;;;;;;;;;33.67;32.00;;;;;7.64;91.23;102055.69;6315681;22;44802;-84
2022/02/09 05:24:14;;;;;;;;;34.33;32.00;;;;;7.70;90.87;102066.56;6313590;22;45328;-83
2022/02/09 05:26:47;;;;;;;;;27.00;27.00;;;;;7.64;91.00;102067.16;6289360;22;45441;-84
2022/02/09 05:29:13;;;;;;;;;40.00;37.00;;;;;7.64;90.74;102071.56;6288897;22;44917;-83
2022/02/09 05:31:38;;;;;;;;;33.33;30.33;;;;;7.56;90.83;102072.09;6290596;22;47138;-83
2022/02/09 05:34:11;;;;;;;;;31.33;28.33;;;;;7.60;90.86;102082.00;6291228;22;45879;-83
2022/02/09 05:36:39;;;;;;;;;32.00;31.00;;;;;7.50;90.86;102068.25;6291601;22;45408;-83
2022/02/09 05:39:04;;;;;;;;;36.00;32.33;;;;;7.51;91.06;102068.31;6291754;22;45323;-83
2022/02/09 05:41:31;;;;;;;;;33.67;29.67;;;;;7.49;90.96;102069.09;6312517;22;47064;-83
2022/02/09 05:43:56;;;;;;;;;33.33;33.33;;;;;7.43;90.92;102056.44;6285595;22;45790;-83
2022/02/09 05:51:32;;;;;;;;;36.67;32.67;;;;;7.47;90.70;102062.81;6316507;22;44895;-83
2022/02/09 05:56:42;;;;;;;;;30.67;30.33;;;;;7.44;90.67;102065.31;6317122;22;45479;-83
2022/02/09 06:01:46;;;;;;;;;31.33;30.00;;;;;7.43;90.78;102071.44;6314317;22;45602;-83
2022/02/09 06:04:11;;;;;;;;;31.00;27.33;;;;;7.45;90.38;102072.41;6285892;22;45703;-83
2022/02/09 06:06:37;;;;;;;;;29.33;24.67;;;;;7.42;90.62;102059.94;6315619;22;45415;-83
2022/02/09 06:09:03;;;;;;;;;31.33;28.33;;;;;7.56;90.67;102071.19;6314199;22;45345;-83
2022/02/09 06:11:47;;;;;;;;;31.00;31.00;;;;;7.58;90.13;102078.38;6314774;22;45369;-83
2022/02/09 06:22:08;;;;;;;;;33.67;33.00;;;;;7.53;90.27;102079.88;6317569;22;45525;-83
2022/02/09 06:24:38;;;;;;;;;43.00;37.67;;;;;7.51;90.35;102072.69;6288955;22;45210;-83
2022/02/09 06:27:04;;;;;;;;;35.33;31.00;;;;;7.50;90.54;102071.81;6317911;22;45359;-83
2022/02/09 06:29:30;;;;;;;;;26.00;24.33;;;;;7.50;90.53;102078.84;6290701;22;45448;-83
2022/02/09 06:31:56;;;;;;;;;34.33;29.33;;;;;7.52;90.09;102082.47;6287305;22;45740;-83
2022/02/09 06:34:22;;;;;;;;;30.00;27.00;;;;;7.54;90.08;102089.66;6313339;22;45383;-83
2022/02/09 06:36:57;;;;;;;;;30.00;30.00;;;;;7.44;90.18;102068.88;6288619;22;45341;-83
2022/02/09 06:39:22;;;;;;;;;35.33;30.67;;;;;7.49;90.52;102084.97;6288716;22;45309;-83
2022/02/09 06:41:48;;;;;;;;;37.00;32.00;;;;;7.48;90.73;102077.88;6318388;22;45373;-83
2022/02/09 06:44:14;;;;;;;;;31.33;30.00;;;;;7.47;90.22;102076.94;6291889;22;45629;-84
2022/02/09 06:46:39;;;;;;;;;31.00;28.33;;;;;7.40;90.38;102075.75;6291329;22;45379;-84
2022/02/09 06:49:08;;;;;;;;;35.67;31.33;;;;;7.46;90.40;102079.53;6319890;22;44762;-84
2022/02/09 06:51:39;;;;;;;;;32.00;29.33;;;;;7.41;90.38;102067.00;6319909;22;45320;-84
2022/02/09 06:54:14;;;;;;;;;36.00;36.00;;;;;7.41;90.46;102074.94;6318228;22;45411;-84
2022/02/09 06:59:30;;;;;;;;;34.33;32.00;;;;;7.41;90.04;102088.16;6318339;22;45298;-87
2022/02/09 07:02:05;;;;;;;;;33.33;29.00;;;;;7.36;89.76;102073.78;6318291;22;45400;-87
2022/02/09 07:04:33;;;;;;;;;31.00;28.67;;;;;7.42;89.78;102089.06;6290912;22;44710;-87
2022/02/09 07:07:00;;;;;;;;;34.33;34.00;;;;;7.24;89.82;102067.00;6319558;22;45666;-87
2022/02/09 07:09:29;;;;;;;;;27.33;22.67;;;;;7.32;89.77;102087.69;6291849;22;45427;-87
2022/02/09 07:11:55;;;;;;;;;30.00;27.33;;;;;7.36;89.69;102097.59;6291983;22;47184;-85
2022/02/09 07:14:26;;;;;;;;;25.67;25.67;;;;;7.36;89.55;102091.41;6318811;22;45717;-85
2022/02/09 07:16:54;;;;;;;;;28.00;24.67;;;;;7.34;89.81;102095.72;6294650;22;44672;-85
2022/02/09 07:19:20;;;;;;;;;32.33;31.67;;;;;7.23;89.52;102087.28;6294639;22;45342;-85
2022/02/09 07:21:47;;;;;;;;;37.33;34.67;;;;;7.28;89.52;102098.97;6317974;22;46865;-85
2022/02/09 07:24:16;;;;;;;;;39.67;33.00;;;;;7.21;89.19;102095.13;6292548;22;45425;-85
2022/02/09 07:29:13;;;;;;;;;46.00;39.00;;;;;7.20;88.82;102101.22;6322774;22;45266;-84
2022/02/09 07:31:40;;;;;;;;;46.33;41.00;;;;;7.19;88.53;102103.78;6266365;22;46807;-84
2022/02/09 07:34:06;;;;;;;;;39.00;36.00;;;;;7.17;88.67;102105.44;6320229;22;45325;-84
2022/02/09 07:36:35;;;;;;;;;44.67;39.00;;;;;7.19;88.71;102103.78;6320129;22;44769;-82
2022/02/09 07:39:04;;;;;;;;;45.33;38.33;;;;;7.18;88.42;102091.41;6292974;22;45314;-83
2022/02/09 07:41:30;;;;;;;;;41.33;38.00;;;;;7.14;88.51;102100.03;6293082;22;47948;-84
2022/02/09 07:47:02;;;;;;;;;38.00;35.33;;;;;7.18;88.17;102097.59;6321942;22;44796;-84
2022/02/09 07:50:37;;;;;;;;;40.33;37.67;;;;;7.19;87.89;102085.28;6318927;22;45263;-84
2022/02/09 07:52:25;;;;;;;;;46.67;35.33;;;;;7.15;87.94;102093.88;6292134;22;45326;-84
2022/02/09 07:54:54;;;;;;;;;41.67;38.33;;;;;7.09;87.96;102083.00;6321094;22;45426;-83
2022/02/09 07:57:19;;;;;;;;;43.25;39.25;;;;;7.12;87.89;102080.53;6295420;22;45475;-84
2022/02/09 07:59:45;;;;;;;;;46.67;41.67;;;;;7.15;87.70;102086.88;6293062;22;45334;-84
2022/02/09 08:05:35;;;;;;;;;63.50;51.75;;;;;7.15;87.90;102072.72;6322198;22;44842;-85
2022/02/09 08:08:07;;;;;;;;;61.50;49.50;;;;;7.27;87.55;102054.84;6294913;22;45374;-84
2022/02/09 08:28:08;;;;;;;;;50.00;44.00;;;;;7.53;87.45;102056.06;6223937;22;45239;-83
2022/02/09 08:33:07;;;;;;;;;47.00;41.25;;;;;7.54;87.33;102026.13;6222779;22;45529;-83
2022/02/09 08:35:38;;;;;;;;;52.25;45.25;;;;;7.68;87.54;102029.41;6222165;22;45411;-86
2022/02/09 08:38:06;;;;;;;;;53.00;45.00;;;;;7.76;87.77;102035.97;6223935;22;45347;-85
2022/02/09 08:41:01;;;;;;;;;40.50;37.25;;;;;7.60;88.00;102006.97;6222891;22;44841;-85
2022/02/09 08:44:04;;;;;;;;;37.25;35.50;;;;;7.90;88.49;102049.84;6108699;23;44940;-84
2022/02/09 08:46:43;;;;;;;;;43.00;39.00;;;;;7.65;88.91;102000.13;6116318;23;45483;-84
2022/02/09 08:49:21;;;;;;;;;45.33;40.00;;;;;7.96;88.83;102044.84;6108306;23;45346;-86
2022/02/09 08:51:51;;;;;;;;;31.00;30.33;;;;;7.94;88.77;102035.91;6134309;23;45432;-85
2022/02/09 08:54:50;;;;;;;;;37.33;34.00;;;;;7.85;88.79;102010.75;6137163;23;44756;-85
2022/02/09 08:57:28;;;;;;;;;37.67;36.00;;;;;8.15;88.24;102029.75;6099548;23;46798;-83
2022/02/09 09:03:45;;;;;;;;;;;;;;;;;;;;;
2022/02/09 09:25:07;;;;;;;;;37.00;34.33;;;;;8.45;86.49;101993.13;6197540;23;45414;-84
2022/02/09 10:02:18;;;;;;;;;37.33;31.67;;;;;9.64;81.95;101993.50;6322250;22;45263;-85
2022/02/09 10:05:43;;;;;;;;;28.67;28.67;;;;;9.59;82.72;101985.34;6321158;22;44807;-84
2022/02/09 10:37:31;;;;;;;;;37.67;33.67;;;;;10.23;80.31;101961.06;6050040;23;45498;-83
2022/02/09 10:40:02;;;;;;;;;38.33;33.33;;;;;10.20;80.02;101954.78;6056877;23;45306;-82
2022/02/09 10:42:49;;;;;;;;;38.67;36.00;;;;;10.21;79.59;101942.41;6050967;23;45047;-81
2022/02/09 10:45:50;;;;;;;;;42.00;33.00;;;;;10.41;80.12;101967.06;6051831;23;44959;-85
2022/02/09 10:48:56;;;;;;;;;37.33;33.00;;;;;10.32;79.15;101934.81;6050286;23;45337;-85
2022/02/09 10:58:01;;;;;;;;;38.00;34.33;;;;;10.76;79.32;101959.34;6123699;23;45717;-85
2022/02/09 11:00:46;;;;;;;;;36.00;31.33;;;;;10.78;79.59;101954.97;6158578;23;47728;-86
2022/02/09 11:03:55;;;;;;;;;;;;;;;;;;;;;
2022/02/09 11:06:59;;;;;;;;;20.00;16.00;;;;;10.72;78.68;101926.41;6132440;23;67874;-86
2022/02/09 11:09:29;;;;;;;;;27.00;26.33;;;;;10.73;78.59;101922.00;6105979;23;45540;-87
2022/02/09 11:11:56;;;;;;;;;32.33;32.00;;;;;10.70;78.48;101911.25;6184614;23;45379;-86
2022/02/09 11:14:25;;;;;;;;;32.00;28.67;;;;;10.75;77.72;101914.97;6214066;22;44774;-84
2022/02/09 11:16:55;;;;;;;;;33.33;32.00;;;;;10.70;77.62;101890.88;6291261;22;45366;-86
2022/02/09 11:19:36;;;;;;;;;37.33;33.33;;;;;10.85;78.20;101914.41;6280701;22;45634;-85
2022/02/09 11:22:38;;;;;;;;;19.00;18.67;;;;;11.14;78.35;101935.72;6277912;22;45442;-86
2022/02/09 11:28:39;;;;;;;;;30.00;30.00;;;;;11.26;76.65;101933.44;6194616;23;45411;-84
2022/02/09 11:41:15;;;;;;;;;35.00;34.67;;;;;11.37;76.80;101902.69;5939863;23;45801;-84
2022/02/09 11:44:21;;;;;;;;;34.33;31.00;;;;;11.51;75.62;101920.84;5931188;24;44944;-85
2022/02/09 11:48:46;;;;;;;;;;;;;;;;;;;;;
2022/02/09 12:01:27;;;;;;;;;35.00;31.00;;;;;11.69;74.81;101905.38;5990019;23;45083;-84
2022/02/09 12:10:13;;;;;;;;;;;;;;;;;;;;;
2022/02/09 12:12:50;;;;;;;;;30.33;30.33;;;;;11.81;75.77;101879.09;6105261;23;75476;-83
2022/02/09 12:19:26;;;;;;;;;29.67;27.33;;;;;12.03;75.59;101862.78;6291621;22;44827;-84
2022/02/09 12:22:14;;;;;;;;;31.00;31.00;;;;;11.88;74.89;101825.94;6285773;22;45348;-85
2022/02/09 12:25:26;;;;;;;;;29.00;27.00;;;;;12.21;74.80;101874.81;6287680;22;47820;-84
2022/02/09 12:28:02;;;;;;;;;27.00;24.33;;;;;12.22;74.92;101865.06;6287348;22;45401;-83
2022/02/09 12:30:29;;;;;;;;;22.33;22.33;;;;;12.13;73.33;101848.81;6260123;22;45379;-84
2022/02/09 12:32:55;;;;;;;;;29.33;26.33;;;;;12.10;74.13;101841.66;6261808;22;45487;-83
2022/02/09 12:35:24;;;;;;;;;28.00;25.33;;;;;12.29;74.10;101852.78;6262801;22;46879;-83
2022/02/09 12:37:53;;;;;;;;;29.67;23.00;;;;;12.39;74.31;101849.47;6235743;22;45330;-83
2022/02/09 12:40:23;;;;;;;;;24.67;24.67;;;;;12.46;74.13;101854.06;6288100;22;45400;-83
2022/02/09 12:42:58;;;;;;;;;28.33;24.00;;;;;12.51;72.41;101847.09;6261081;22;45654;-84
2022/02/09 12:48:49;;;;;;;;;25.33;21.33;;;;;12.19;70.05;101800.97;6284972;22;45539;-81
2022/02/09 12:51:57;;;;;;;;;21.67;21.33;;;;;12.55;70.64;101832.06;6265756;22;45414;-84
2022/02/09 12:54:22;;;;;;;;;21.67;18.33;;;;;12.48;69.95;101828.38;6137839;23;44980;-83
2022/02/09 12:56:53;;;;;;;;;23.00;21.67;;;;;12.64;69.97;101834.03;6138696;23;47295;-84
2022/02/09 12:59:21;;;;;;;;;22.67;22.00;;;;;12.66;69.48;101824.31;6130141;23;45430;-76
2022/02/09 13:01:56;;;;;;;;;19.00;17.33;;;;;12.73;67.00;101831.59;6150392;23;45585;-77
2022/02/09 13:04:34;;;;;;;;;20.33;19.33;;;;;12.83;67.71;101828.25;6131411;23;45351;-76
2022/02/09 13:07:07;;;;;;;;;21.33;17.00;;;;;12.84;67.52;101824.72;6126943;23;45468;-77
2022/02/09 13:09:34;;;;;;;;;22.33;19.67;;;;;12.84;67.49;101816.69;6123320;23;45421;-76
2022/02/09 13:11:59;;;;;;;;;15.67;15.67;;;;;12.88;66.93;101815.91;6151645;23;45846;-75
2022/02/09 13:14:38;;;;;;;;;19.33;16.67;;;;;12.93;67.35;101818.69;6149957;23;45411;-76
2022/02/09 14:55:46;;;;;;;;;13.33;13.33;;;;;13.39;62.11;101729.72;6308570;22;45689;-79
2022/02/09 14:58:13;;;;;;;;;14.67;14.33;;;;;13.40;61.45;101726.16;6287990;22;45792;-81
2022/02/09 15:08:35;;;;;;;;;13.00;13.00;;;;;13.35;61.67;101695.81;6309430;22;45491;-76
2022/02/09 15:11:12;;;;;;;;;16.33;14.00;;;;;13.38;62.49;101701.19;6286121;22;45456;-77
2022/02/09 15:16:28;;;;;;;;;15.00;15.00;;;;;13.42;61.98;101701.25;6311303;22;45323;-77
2022/02/09 15:24:21;;;;;;;;;12.67;12.67;;;;;13.44;63.03;101699.50;6310049;22;45353;-78
2022/02/09 15:26:49;;;;;;;;;18.67;18.00;;;;;13.47;62.60;101699.56;6307918;22;45431;-77
2022/02/09 15:29:17;;;;;;;;;14.33;13.00;;;;;13.47;62.96;101691.53;6278198;22;45386;-76
2022/02/09 15:31:51;;;;;;;;;16.33;14.00;;;;;13.49;62.71;101695.13;6305148;22;45396;-76
2022/02/09 15:37:01;;;;;;;;;15.67;14.00;;;;;13.50;61.50;101689.81;6300013;22;45409;-77
2022/02/09 15:39:30;;;;;;;;;14.67;14.67;;;;;13.47;61.06;101678.19;6277743;22;45349;-77
2022/02/09 16:16:32;;;;;;;;;19.67;16.00;;;;;13.45;61.38;101653.19;6313010;22;45345;-77
2022/02/09 16:22:35;;;;;;;;;17.67;17.67;;;;;13.37;62.05;101648.66;6310862;22;45735;-76
2022/02/09 16:33:21;;;;;;;;;18.00;16.67;;;;;13.45;62.11;101648.75;6308213;22;45476;-77
2022/02/09 16:44:39;;;;;;;;;18.67;18.67;;;;;13.29;63.14;101644.94;6307385;22;45395;-75
2022/02/09 16:47:56;;;;;;;;;19.00;19.00;;;;;13.25;63.54;101645.72;6310694;22;44711;-78
2022/02/09 16:50:02;;;;;;;;;22.00;20.33;;;;;13.17;63.42;101647.38;6304146;22;45271;-76
2022/02/09 16:52:37;;;;;;;;;20.67;19.33;;;;;13.11;63.91;101641.88;6285584;22;47630;-76
2022/02/09 16:55:38;;;;;;;;;24.00;20.00;;;;;13.00;64.60;101639.91;6293980;22;45424;-76
2022/02/09 17:20:27;;;;;;;;;19.00;14.67;;;;;12.43;65.16;101632.59;6254573;22;45433;-82
2022/02/09 17:22:53;;;;;;;;;13.33;13.00;;;;;12.33;65.14;101626.16;6227331;22;45944;-83
2022/02/09 17:25:19;;;;;;;;;14.33;13.00;;;;;12.34;65.34;101627.03;6252635;22;45915;-83
2022/02/09 17:28:09;;;;;;;;;20.00;19.67;;;;;12.25;65.45;101608.19;6253638;22;45406;-83
2022/02/09 17:33:15;;;;;;;;;20.33;18.67;;;;;12.17;66.11;101616.91;6285812;22;45420;-83
2022/02/09 17:36:03;;;;;;;;;19.33;18.00;;;;;11.96;66.18;101595.13;6236036;22;45647;-84
2022/02/09 18:00:25;;;;;;;;;19.33;18.00;;;;;11.94;67.73;101651.06;6305216;22;45146;-84
2022/02/09 18:02:55;;;;;;;;;22.00;19.33;;;;;11.94;67.56;101656.41;6290337;22;45179;-83
2022/02/09 18:07:59;;;;;;;;;20.00;17.00;;;;;11.84;67.89;101649.03;6316725;22;45360;-84
2022/02/09 18:31:40;;;;;;;;;32.33;32.00;;;;;11.68;69.20;101644.22;6283884;22;45555;-83
2022/02/09 18:45:01;;;;;;;;;31.00;29.67;;;;;11.49;70.46;101645.50;6286267;22;45379;-83
2022/02/09 19:02:38;;;;;;;;;40.00;33.00;;;;;11.11;72.90;101627.72;6251241;22;45795;-82
2022/02/09 19:05:32;;;;;;;;;35.67;33.67;;;;;11.07;73.32;101614.25;6252455;22;45531;-83
2022/02/09 19:27:07;;;;;;;;;33.00;33.00;;;;;10.83;75.02;101604.78;6188147;23;45363;-83
2022/02/09 19:48:27;;;;;;;;;45.67;36.67;;;;;10.48;77.51;101585.19;6191980;23;45426;-83
2022/02/09 19:56:17;;;;;;;;;45.33;38.33;;;;;10.41;77.77;101597.41;6191018;23;45979;-83
2022/02/09 20:01:12;;;;;;;;;45.00;38.33;;;;;10.35;78.25;101595.47;6304073;22;44822;-83
2022/02/09 20:03:37;;;;;;;;;41.00;38.33;;;;;10.31;78.53;101592.69;6317525;22;45751;-84
2022/02/09 20:06:07;;;;;;;;;45.67;39.00;;;;;10.32;78.73;101594.47;6317755;22;45265;-83
2022/02/09 20:08:35;;;;;;;;;51.00;43.00;;;;;10.29;78.98;101591.72;6290269;22;44728;-84
2022/02/09 20:11:01;;;;;;;;;50.75;41.25;;;;;10.27;79.46;101585.44;6317165;22;45518;-84
2022/02/09 20:13:26;;;;;;;;;49.00;43.00;;;;;10.20;79.33;101577.28;6318857;22;45130;-84
2022/02/09 20:15:52;;;;;;;;;52.00;42.67;;;;;10.24;79.71;101585.34;6290576;22;48405;-84
2022/02/09 20:18:17;;;;;;;;;46.00;39.00;;;;;10.24;80.22;101590.66;6318537;22;45259;-84
2022/02/09 20:20:43;;;;;;;;;53.75;42.75;;;;;10.19;80.13;101583.44;6315595;22;44780;-84
2022/02/09 20:23:11;;;;;;;;;52.50;41.00;;;;;10.12;80.52;101576.19;6316361;22;45446;-84
2022/02/09 20:25:36;;;;;;;;;58.33;43.00;;;;;10.12;80.58;101578.84;6314385;22;45395;-84
2022/02/09 20:28:01;;;;;;;;;47.67;41.33;;;;;10.12;80.68;101580.56;6288718;22;45243;-84
2022/02/09 20:30:34;;;;;;;;;53.00;43.75;;;;;10.12;81.03;101580.56;6288640;22;45544;-83
2022/02/09 20:33:03;;;;;;;;;54.75;45.75;;;;;10.12;80.82;101577.91;6315036;22;45759;-84
2022/02/09 20:35:29;;;;;;;;;54.50;42.25;;;;;10.11;80.64;101574.34;6287161;22;45444;-84
2022/02/09 20:37:55;;;;;;;;;59.50;48.25;;;;;10.10;80.71;101575.22;6290470;22;45436;-84
2022/02/09 20:40:35;;;;;;;;;56.50;46.00;;;;;10.03;80.71;101570.56;6290472;22;45468;-84
2022/02/09 20:43:03;;;;;;;;;55.25;46.75;;;;;10.08;80.51;101579.59;6289468;22;45375;-83
2022/02/09 20:45:37;;;;;;;;;58.50;47.75;;;;;10.10;80.81;101579.63;6289927;22;48073;-81
2022/02/09 20:48:12;;;;;;;;;56.25;46.00;;;;;9.98;80.56;101564.25;6307798;22;45806;-83
2022/02/09 20:50:37;;;;;;;;;59.00;48.00;;;;;10.00;80.29;101581.13;6290552;22;45416;-83
2022/02/09 20:53:03;;;;;;;;;58.25;48.25;;;;;10.00;80.28;101581.13;6317409;22;45540;-83
2022/02/09 20:55:30;;;;;;;;;59.25;47.50;;;;;9.94;80.44;101580.94;6317722;22;45862;-84
2022/02/09 20:57:56;;;;;;;;;57.00;47.75;;;;;9.95;80.55;101582.72;6316502;22;45403;-83
2022/02/09 21:00:39;;;;;;;;;58.00;49.00;;;;;9.91;80.70;101580.84;6308297;22;45523;-83
2022/02/09 21:05:42;;;;;;;;;62.00;49.25;;;;;9.88;81.06;101580.75;6312250;22;45000;-83
2022/02/09 21:13:12;;;;;;;;;53.50;43.00;;;;;9.80;81.57;101581.41;6318391;22;44819;-83
2022/02/09 21:53:19;;;;;;;;;65.25;52.75;;;;;9.19;82.92;101603.38;6251511;22;45535;-83
2022/02/09 21:58:41;;;;;;;;;59.75;50.00;;;;;9.09;82.75;101606.53;6251227;22;45343;-83
2022/02/09 22:20:37;;;;;;;;;62.75;49.50;;;;;8.66;86.13;101573.22;6286106;22;46215;-82
2022/02/09 22:28:29;;;;;;;;;53.00;44.75;;;;;8.79;85.00;101554.25;6286443;22;45393;-82
2022/02/09 22:54:51;;;;;;;;;56.50;46.25;;;;;8.89;84.60;101543.09;6286072;22;45631;-83
2022/02/09 22:57:21;;;;;;;;;62.50;48.25;;;;;8.88;84.65;101533.31;6258053;22;45349;-83
2022/02/09 22:59:58;;;;;;;;;49.00;39.75;;;;;8.86;84.38;101528.81;6258025;22;45222;-83
2022/02/09 23:02:31;;;;;;;;;60.75;50.25;;;;;8.96;84.21;101537.13;6287319;22;45512;-83
2022/02/09 23:10:09;;;;;;;;;55.25;46.25;;;;;9.01;84.29;101532.91;6316453;22;45451;-83
2022/02/09 23:12:47;;;;;;;;;57.25;47.00;;;;;9.04;84.03;101539.16;6288371;22;45379;-82
2022/02/09 23:15:42;;;;;;;;;55.50;46.50;;;;;9.06;84.08;101543.66;6315911;22;45396;-82
2022/02/09 23:23:40;;;;;;;;;57.00;46.00;;;;;9.12;83.97;101545.59;6315488;22;45300;-82
